Time;durP1;ratioP1;P1;durP2;ratioP2;P2;SDS_P1;SDS_P2;PMS_P1;PMS_P2;Temp;Humidity;BMP_temperature;BMP_pressure;BME280_temperature;BME280_humidity;BME280_pressure;Samples;Min_cycle;Max_cycle;Signal;HPM_P1;HPM_P2
2022/10/28 00:01:18;;;;;;;8.50;2.58;;;19.70;99.90;;;-144.05;54.06;125687.94;5019262;28;20041;-84
2022/10/28 00:03:52;;;;;;;8.73;3.25;;;19.70;99.90;;;-144.05;54.10;125687.94;5001023;28;20121;-84
2022/10/28 00:06:30;;;;;;;13.32;3.53;;;19.80;99.90;;;-144.05;54.11;125687.94;5020017;28;20034;-82
2022/10/28 00:08:57;;;;;;;13.52;3.35;;;19.90;99.90;;;-144.05;53.62;125687.94;5018976;28;20531;-83
2022/10/28 00:11:28;;;;;;;13.75;3.65;;;19.90;99.90;;;-144.05;53.85;125687.94;5018770;28;20125;-82
2022/10/28 00:13:57;;;;;;;10.98;2.97;;;19.90;99.90;;;-144.05;53.46;125687.94;5018849;28;20022;-84
2022/10/28 00:16:31;;;;;;;9.15;3.00;;;20.00;99.90;;;-144.05;53.54;125687.94;5001272;28;20026;-81
2022/10/28 00:18:59;;;;;;;9.07;3.60;;;20.00;99.90;;;-144.05;53.78;125687.94;5000832;28;20030;-83
2022/10/28 00:21:30;;;;;;;15.02;2.92;;;20.00;99.90;;;-144.05;53.06;125687.94;5018755;28;20113;-80
2022/10/28 00:23:57;;;;;;;8.23;2.90;;;20.00;99.90;;;-144.05;53.21;125687.94;5000404;28;20568;-84
2022/10/28 00:26:30;;;;;;;11.63;3.20;;;20.00;99.90;;;-144.05;53.48;125687.94;5017211;28;20049;-83
2022/10/28 00:29:01;;;;;;;9.75;2.88;;;19.90;99.90;;;-144.05;53.19;125687.94;4999019;28;20038;-82
2022/10/28 00:31:30;;;;;;;13.27;3.25;;;19.90;99.90;;;-144.05;52.91;125687.94;5001926;28;20030;-83
2022/10/28 00:34:01;;;;;;;9.05;3.22;;;20.00;99.90;;;-144.05;52.88;125687.94;5000386;28;20029;-81
2022/10/28 00:36:36;;;;;;;9.50;3.10;;;20.00;99.90;;;-144.05;52.08;125687.94;5017503;28;20034;-84
2022/10/28 00:39:13;;;;;;;10.95;3.15;;;20.10;99.90;;;-144.05;52.02;125687.94;5000507;28;20041;-85
2022/10/28 00:41:46;;;;;;;10.90;3.28;;;20.20;99.90;;;-144.05;51.80;125687.94;5018433;28;20026;-82
2022/10/28 00:44:58;;;;;;;13.65;3.08;;;20.20;99.90;;;-144.05;51.45;125687.94;5002122;28;20057;-81
2022/10/28 00:48:08;;;;;;;9.95;2.92;;;20.20;99.90;;;-144.05;51.70;125687.94;5019889;28;20109;-80
2022/10/28 00:50:50;;;;;;;13.00;3.92;;;20.20;99.90;;;-144.05;51.57;125687.94;5017033;28;20501;-81
2022/10/28 00:53:27;;;;;;;7.80;2.60;;;20.20;99.90;;;-144.05;51.32;125687.94;5018694;28;20105;-79
2022/10/28 00:55:58;;;;;;;10.52;2.80;;;20.10;99.90;;;-144.05;51.47;125687.94;5017040;28;20026;-80
2022/10/28 00:58:26;;;;;;;12.95;3.70;;;20.10;99.90;;;-144.05;50.94;125687.94;5020449;28;20501;-85
2022/10/28 01:00:53;;;;;;;8.55;2.72;;;20.10;99.90;;;-144.05;50.99;125687.94;5014251;28;20097;-82
2022/10/28 01:03:19;;;;;;;14.50;3.25;;;20.20;99.90;;;-144.05;50.96;125687.94;5008232;28;20037;-83
2022/10/28 01:05:49;;;;;;;12.18;3.47;;;20.20;99.90;;;-144.05;50.75;125687.94;5029334;28;20118;-84
2022/10/28 01:08:16;;;;;;;7.32;2.95;;;20.20;99.90;;;-144.05;50.82;125687.94;5023753;28;20065;-84
2022/10/28 01:11:13;;;;;;;9.95;3.50;;;20.20;99.90;;;-144.05;50.91;125687.94;5022441;28;20080;-83
2022/10/28 01:14:30;;;;;;;8.43;2.72;;;20.10;99.90;;;-144.05;50.74;125687.94;5022653;28;20580;-83
2022/10/28 01:17:26;;;;;;;13.98;4.10;;;20.10;99.90;;;-144.05;50.40;125687.94;5006682;28;20068;-83
2022/10/28 01:20:28;;;;;;;9.95;3.63;;;20.20;99.90;;;-144.05;49.79;125687.94;5024315;28;20058;-84
2022/10/28 01:23:17;;;;;;;13.00;3.65;;;20.30;99.90;;;-144.05;49.79;125687.94;5006639;28;20075;-85
2022/10/28 01:26:34;;;;;;;17.90;3.35;;;20.40;99.90;;;-144.05;49.40;125687.94;5006090;28;20022;-83
2022/10/28 01:29:29;;;;;;;12.40;3.42;;;20.50;99.90;;;-144.05;49.35;125687.94;5021532;28;20026;-82
2022/10/28 01:32:27;;;;;;;11.88;2.92;;;20.50;99.90;;;-144.05;49.21;125687.94;5022211;28;20203;-84
2022/10/28 01:35:40;;;;;;;10.75;3.28;;;20.50;99.90;;;-144.05;49.22;125687.94;5022810;28;20092;-83
2022/10/28 01:38:40;;;;;;;13.68;3.22;;;20.50;99.90;;;-144.05;49.25;125687.94;4999790;28;20038;-81
2022/10/28 01:41:36;;;;;;;9.98;3.00;;;20.40;99.90;;;-144.05;49.42;125687.94;5002625;28;20026;-81
2022/10/28 01:44:31;;;;;;;10.68;2.60;;;20.40;99.90;;;-144.05;48.91;125687.94;5021660;28;20033;-81
2022/10/28 01:47:15;;;;;;;11.52;3.47;;;20.50;99.90;;;-144.05;48.59;125687.94;5002661;28;20026;-79
2022/10/28 01:50:08;;;;;;;7.32;2.83;;;20.50;99.90;;;-144.05;48.94;125687.94;5002341;28;20442;-81
2022/10/28 01:52:40;;;;;;;15.40;2.70;;;20.60;99.90;;;-144.05;48.24;125687.94;5022345;28;20026;-81
2022/10/28 01:55:22;;;;;;;9.60;3.17;;;20.60;99.90;;;-144.05;48.08;125687.94;5022631;28;20481;-83
2022/10/28 01:57:53;;;;;;;12.65;3.22;;;20.70;99.90;;;-144.05;47.98;125687.94;5023445;28;20061;-81
2022/10/28 02:00:19;;;;;;;7.13;2.83;;;20.70;99.90;;;-144.05;47.74;125687.94;5020046;28;20049;-82
2022/10/28 02:02:49;;;;;;;12.77;3.08;;;20.80;99.90;;;-144.05;47.98;125687.94;5017163;28;20030;-82
2022/10/28 02:05:39;;;;;;;11.65;2.80;;;20.80;99.90;;;-144.05;48.04;125687.94;5018559;28;20026;-82
2022/10/28 02:08:17;;;;;;;9.15;2.72;;;20.70;99.90;;;-144.05;48.25;125687.94;5002699;28;20396;-82
2022/10/28 02:11:01;;;;;;;9.50;2.78;;;20.60;99.90;;;-144.05;48.68;125687.94;5002205;28;20072;-84
2022/10/28 02:13:59;;;;;;;11.57;3.28;;;20.60;99.90;;;-144.05;48.66;125687.94;5003751;28;20145;-83
2022/10/28 02:16:53;;;;;;;14.00;2.90;;;20.50;99.90;;;-144.05;48.71;125687.94;4994823;28;20402;-82
2022/10/28 02:19:52;;;;;;;10.95;2.80;;;20.50;99.90;;;-144.05;48.71;125687.94;5019841;28;20073;-80
2022/10/28 02:22:48;;;;;;;10.73;3.15;;;20.50;99.90;;;-144.05;48.73;125687.94;5021057;28;20438;-85
2022/10/28 02:25:37;;;;;;;9.88;3.40;;;20.50;99.90;;;-144.05;48.71;125687.94;5019534;28;20026;-84
2022/10/28 02:28:22;;;;;;;11.55;2.70;;;20.50;99.90;;;-144.05;48.74;125687.94;5018793;28;20029;-82
2022/10/28 02:31:06;;;;;;;9.48;2.97;;;20.50;99.90;;;-144.05;48.71;125687.94;5003099;28;20133;-85
2022/10/28 02:33:40;;;;;;;11.63;3.22;;;20.40;99.90;;;-144.05;48.96;125687.94;5001902;28;20098;-83
2022/10/28 02:36:18;;;;;;;11.20;2.85;;;20.40;99.90;;;-144.05;49.30;125687.94;5002874;28;20129;-83
2022/10/28 02:38:52;;;;;;;12.25;2.90;;;20.40;99.90;;;-144.05;48.91;125687.94;5003963;28;20030;-82
2022/10/28 02:41:43;;;;;;;9.60;2.70;;;20.40;99.90;;;-144.05;48.49;125687.94;5022375;28;20030;-83
2022/10/28 02:44:22;;;;;;;10.68;3.35;;;20.50;99.90;;;-144.05;49.03;125687.94;5004300;28;20045;-82
2022/10/28 02:46:53;;;;;;;11.38;2.92;;;20.60;99.90;;;-144.05;48.66;125687.94;5023315;28;20030;-83
2022/10/28 02:49:20;;;;;;;14.52;2.95;;;20.60;99.90;;;-144.05;48.71;125687.94;5021696;28;20026;-83
2022/10/28 02:52:01;;;;;;;13.45;3.28;;;20.50;99.90;;;-144.05;48.74;125687.94;5022057;28;20037;-81
2022/10/28 02:54:37;;;;;;;12.23;3.05;;;20.50;99.90;;;-144.05;49.02;125687.94;5004458;28;20034;-83
2022/10/28 02:57:16;;;;;;;13.82;3.08;;;20.50;99.90;;;-144.05;48.83;125687.94;5004791;28;20120;-83
2022/10/28 02:59:53;;;;;;;8.13;2.65;;;20.50;99.90;;;-144.05;48.90;125687.94;5020725;28;20022;-80
2022/10/28 03:02:19;;;;;;;7.07;2.70;;;20.50;99.90;;;-144.05;49.11;125687.94;5022197;28;20034;-83
2022/10/28 03:04:44;;;;;;;9.50;2.70;;;20.40;99.90;;;-144.05;49.43;125687.94;5021599;28;20034;-83
2022/10/28 03:07:10;;;;;;;10.57;3.70;;;20.30;99.90;;;-144.05;49.67;125687.94;5004273;28;20033;-82
2022/10/28 03:09:36;;;;;;;9.35;2.72;;;20.20;99.90;;;-144.05;49.95;125687.94;5003349;28;20033;-85
2022/10/28 03:12:02;;;;;;;14.45;3.60;;;20.20;99.90;;;-144.05;50.27;125687.94;5002333;28;20053;-81
2022/10/28 03:14:28;;;;;;;7.07;3.10;;;20.10;99.90;;;-144.05;50.38;125687.94;5019929;28;20067;-82
2022/10/28 03:16:54;;;;;;;12.52;3.30;;;20.00;99.90;;;-144.05;50.65;125687.94;5020066;28;20068;-84
2022/10/28 03:19:19;;;;;;;9.93;3.50;;;19.90;99.90;;;-144.05;50.80;125687.94;5003272;28;20018;-84
2022/10/28 03:21:45;;;;;;;8.75;3.17;;;19.90;99.90;;;-144.05;51.04;125687.94;5019122;28;20029;-82
2022/10/28 03:24:11;;;;;;;17.45;3.22;;;19.90;99.90;;;-144.05;51.31;125687.94;5002972;28;20539;-83
2022/10/28 03:26:37;;;;;;;12.45;3.25;;;19.70;99.90;;;-144.05;51.23;125687.94;5001674;28;20076;-85
2022/10/28 03:29:03;;;;;;;13.98;2.80;;;19.70;99.90;;;-144.05;51.45;125687.94;5021653;28;20030;-85
2022/10/28 03:31:28;;;;;;;14.60;3.47;;;19.70;99.90;;;-144.05;51.49;125687.94;5030967;28;20038;-81
2022/10/28 03:33:55;;;;;;;17.40;3.08;;;19.70;99.90;;;-144.05;51.93;125687.94;5033915;28;20038;-82
2022/10/28 03:36:20;;;;;;;8.27;2.60;;;19.60;99.90;;;-144.05;51.45;125687.94;5034576;28;20041;-83
2022/10/28 03:38:46;;;;;;;8.18;3.03;;;19.60;99.90;;;-144.05;51.55;125687.94;5046550;23;20050;-75
2022/10/28 03:41:12;;;;;;;10.65;3.13;;;19.60;99.90;;;-144.05;51.58;125687.94;4997580;28;20076;-77
2022/10/28 03:43:38;;;;;;;7.97;3.28;;;19.50;99.90;;;-144.05;51.95;125687.94;5014775;28;20029;-77
2022/10/28 03:46:04;;;;;;;11.82;3.20;;;19.50;99.90;;;-144.05;52.32;125687.94;5014191;28;20037;-76
2022/10/28 03:48:30;;;;;;;14.27;2.90;;;19.40;99.90;;;-144.05;52.23;125687.94;4996190;28;20033;-78
2022/10/28 03:50:56;;;;;;;13.98;3.30;;;19.40;99.90;;;-144.05;51.99;125687.94;5014148;28;20022;-77
2022/10/28 03:53:22;;;;;;;16.65;3.90;;;19.50;99.90;;;-144.05;52.26;125687.94;5013109;28;20057;-77
2022/10/28 03:55:58;;;;;;;9.30;2.80;;;19.40;99.90;;;-144.05;52.03;125687.94;5013925;28;20049;-77
2022/10/28 03:58:25;;;;;;;;;;;19.40;99.90;;;-144.05;52.13;125687.94;5016457;28;20022;-76
2022/10/28 04:00:53;;;;;;;13.32;3.08;;;19.40;99.90;;;-144.05;52.27;125687.94;5015271;28;19909;-77
2022/10/28 04:03:22;;;;;;;14.43;3.15;;;19.30;99.90;;;-144.05;52.59;125687.94;5014820;28;20033;-77
2022/10/28 04:05:48;;;;;;;7.90;3.20;;;19.30;99.90;;;-144.05;52.43;125687.94;5014217;28;20037;-78
2022/10/28 04:08:19;;;;;;;10.77;3.33;;;19.30;99.90;;;-144.05;52.82;125687.94;5014631;28;20319;-75
2022/10/28 04:10:46;;;;;;;12.50;3.30;;;19.20;99.90;;;-144.05;52.98;125687.94;5014253;28;20080;-76
2022/10/28 04:13:13;;;;;;;11.10;3.53;;;19.20;99.90;;;-144.05;53.00;125687.94;5013906;28;20029;-77
2022/10/28 04:15:39;;;;;;;13.55;3.05;;;19.10;99.90;;;-144.05;53.24;125687.94;5013893;28;20029;-77
2022/10/28 04:18:05;;;;;;;12.48;3.53;;;19.10;99.90;;;-144.05;53.24;125687.94;5013159;28;20026;-76
2022/10/28 04:20:32;;;;;;;13.95;3.15;;;19.10;99.90;;;-144.05;53.33;125687.94;5014802;28;20026;-77
2022/10/28 04:22:58;;;;;;;11.63;2.97;;;19.10;99.90;;;-144.05;53.10;125687.94;5014151;28;20025;-79
2022/10/28 04:25:26;;;;;;;10.00;3.55;;;19.00;99.90;;;-144.05;53.43;125687.94;5014561;28;20149;-78
2022/10/28 04:27:53;;;;;;;8.50;3.13;;;19.10;99.90;;;-144.05;53.49;125687.94;5002439;28;20034;-77
2022/10/28 04:30:20;;;;;;;12.88;3.70;;;19.10;99.90;;;-144.05;53.55;125687.94;5027652;28;20092;-80
2022/10/28 04:32:46;;;;;;;11.90;3.55;;;19.10;99.90;;;-144.05;53.34;125687.94;5028097;28;20048;-80
2022/10/28 04:35:13;;;;;;;12.93;3.20;;;19.10;99.90;;;-144.05;53.35;125687.94;5029828;28;20036;-79
2022/10/28 04:37:40;;;;;;;15.80;3.63;;;19.20;99.90;;;-144.05;53.55;125687.94;5027324;28;20030;-76
2022/10/28 04:40:08;;;;;;;11.43;2.90;;;19.10;99.90;;;-144.05;53.70;125687.94;5026190;28;20040;-75
2022/10/28 04:42:34;;;;;;;17.00;3.90;;;19.10;99.90;;;-144.05;53.75;125687.94;5001505;28;20033;-78
2022/10/28 04:45:00;;;;;;;16.15;3.40;;;19.10;99.90;;;-144.05;54.25;125687.94;5013537;28;20068;-77
2022/10/28 04:47:26;;;;;;;12.85;4.10;;;19.00;99.90;;;-144.05;53.99;125687.94;5013355;28;20026;-77
2022/10/28 04:49:52;;;;;;;8.55;2.50;;;19.00;99.90;;;-144.05;53.83;125687.94;5013486;28;20506;-77
2022/10/28 04:52:17;;;;;;;15.63;3.08;;;19.10;99.90;;;-144.05;53.83;125687.94;5011991;28;20037;-78
2022/10/28 04:54:43;;;;;;;13.05;3.60;;;19.10;99.90;;;-144.05;54.05;125687.94;4995306;28;20033;-77
2022/10/28 04:57:09;;;;;;;10.85;3.45;;;19.10;99.90;;;-144.05;53.70;125687.94;4995165;28;20022;-77
2022/10/28 04:59:36;;;;;;;13.77;3.17;;;19.10;99.90;;;-144.05;53.84;125687.94;5012242;28;20493;-78
2022/10/28 05:02:02;;;;;;;12.00;3.53;;;19.10;99.90;;;-144.05;53.80;125687.94;5013189;28;20389;-77
2022/10/28 05:04:28;;;;;;;18.55;3.60;;;19.10;99.90;;;-144.05;53.96;125687.94;5013053;28;20112;-77
2022/10/28 05:06:53;;;;;;;13.27;3.45;;;19.00;99.90;;;-144.05;53.93;125687.94;5012845;28;20548;-77
2022/10/28 05:09:19;;;;;;;11.10;3.15;;;19.00;99.90;;;-144.05;53.78;125687.94;5013039;28;20026;-78
2022/10/28 05:11:45;;;;;;;12.02;3.40;;;19.00;99.90;;;-144.05;53.85;125687.94;5013270;28;20026;-76
2022/10/28 05:14:11;;;;;;;22.05;3.47;;;19.00;99.90;;;-144.05;53.93;125687.94;5013010;28;20033;-78
2022/10/28 05:16:37;;;;;;;11.98;3.30;;;18.90;99.90;;;-144.05;53.98;125687.94;5013564;28;20481;-78
2022/10/28 05:19:02;;;;;;;8.43;3.20;;;18.90;99.90;;;-144.05;53.85;125687.94;5013014;28;20045;-77
2022/10/28 05:21:28;;;;;;;10.65;3.20;;;18.90;99.90;;;-144.05;54.07;125687.94;5013178;28;20030;-78
2022/10/28 05:23:54;;;;;;;12.45;3.40;;;18.90;99.90;;;-144.05;54.25;125687.94;4995155;28;20038;-78
2022/10/28 05:26:20;;;;;;;10.85;3.70;;;18.80;99.90;;;-144.05;54.27;125687.94;5013019;28;20462;-77
2022/10/28 05:28:50;;;;;;;11.85;3.80;;;18.80;99.90;;;-144.05;54.60;125687.94;5012852;28;20116;-76
2022/10/28 05:31:17;;;;;;;13.63;3.63;;;18.80;99.90;;;-144.05;54.49;125687.94;5012876;28;20277;-77
2022/10/28 05:33:43;;;;;;;16.40;3.92;;;18.70;99.90;;;-144.05;54.85;125687.94;5012343;28;20026;-78
2022/10/28 05:36:10;;;;;;;15.27;3.80;;;18.70;99.90;;;-144.05;55.15;125687.94;5013461;28;20114;-76
2022/10/28 05:38:36;;;;;;;12.13;3.55;;;18.70;99.90;;;-144.05;55.01;125687.94;5013739;28;20104;-77
2022/10/28 05:41:02;;;;;;;11.98;3.45;;;18.80;99.90;;;-144.05;54.80;125687.94;5012339;28;20061;-77
2022/10/28 05:43:28;;;;;;;14.23;2.92;;;18.80;99.90;;;-144.05;54.71;125687.94;5012653;28;20167;-77
2022/10/28 05:45:56;;;;;;;9.77;3.05;;;18.80;99.90;;;-144.05;54.80;125687.94;5019314;28;20083;-78
2022/10/28 05:48:23;;;;;;;10.75;3.45;;;18.80;99.90;;;-144.05;54.94;125687.94;4998762;28;20036;-79
2022/10/28 05:50:49;;;;;;;14.55;3.78;;;18.80;99.90;;;-144.05;54.78;125687.94;5014458;28;20065;-77
2022/10/28 05:53:15;;;;;;;9.50;2.92;;;18.80;99.90;;;-144.05;54.97;125687.94;5016050;28;20070;-77
2022/10/28 05:55:41;;;;;;;15.65;3.38;;;18.80;99.90;;;-144.05;54.91;125687.94;5023898;28;20042;-78
2022/10/28 05:58:08;;;;;;;12.55;4.15;;;18.80;99.90;;;-144.05;55.24;125687.94;5015647;28;20069;-77
2022/10/28 06:00:35;;;;;;;18.33;4.15;;;18.90;99.90;;;-144.05;55.34;125687.94;5013992;28;20465;-77
2022/10/28 06:03:09;;;;;;;15.05;3.85;;;18.80;99.90;;;-144.05;55.31;125687.94;5014394;28;20022;-77
2022/10/28 06:05:43;;;;;;;11.10;4.00;;;18.80;99.90;;;-144.05;55.28;125687.94;5014836;28;20120;-77
2022/10/28 06:08:11;;;;;;;11.70;3.90;;;18.80;99.90;;;-144.05;55.33;125687.94;5015265;28;20036;-78
2022/10/28 06:10:39;;;;;;;9.10;3.20;;;18.80;99.90;;;-144.05;55.40;125687.94;5015250;28;20022;-77
2022/10/28 06:13:05;;;;;;;19.38;4.25;;;18.80;99.90;;;-144.05;55.20;125687.94;4997982;28;20034;-77
2022/10/28 06:15:31;;;;;;;10.60;3.97;;;18.80;99.90;;;-144.05;55.16;125687.94;5014060;28;20116;-77
2022/10/28 06:17:57;;;;;;;14.18;3.30;;;18.90;99.90;;;-144.05;55.40;125687.94;5015069;28;20029;-79
2022/10/28 06:20:23;;;;;;;15.15;3.65;;;18.80;99.90;;;-144.05;55.47;125687.94;5013617;28;20041;-78
2022/10/28 06:22:55;;;;;;;12.27;3.40;;;18.80;99.90;;;-144.05;55.56;125687.94;5015087;28;20038;-78
2022/10/28 06:25:24;;;;;;;12.70;3.55;;;18.80;99.90;;;-144.05;55.57;125687.94;4997353;28;20037;-76
2022/10/28 06:27:59;;;;;;;16.23;3.88;;;18.80;99.90;;;-144.05;55.55;125687.94;4996820;28;20405;-76
2022/10/28 06:30:27;;;;;;;18.80;4.00;;;18.80;99.90;;;-144.05;55.83;125687.94;5014797;28;20029;-78
2022/10/28 06:32:56;;;;;;;13.00;3.60;;;18.70;99.90;;;-144.05;55.93;125687.94;5014585;28;20401;-77
2022/10/28 06:35:22;;;;;;;14.13;3.63;;;18.70;99.90;;;-144.05;55.95;125687.94;5015012;28;20080;-76
2022/10/28 06:37:56;;;;;;;9.27;3.20;;;18.80;99.90;;;-144.05;55.69;125687.94;5014425;28;20059;-78
2022/10/28 06:40:28;;;;;;;13.82;4.13;;;18.80;99.90;;;-144.05;55.67;125687.94;5013618;28;20101;-78
2022/10/28 06:43:04;;;;;;;12.75;3.67;;;18.80;99.90;;;-144.05;55.62;125687.94;5014640;28;20033;-79
2022/10/28 06:45:33;;;;;;;11.15;3.50;;;18.80;99.90;;;-144.05;55.88;125687.94;5014523;28;20445;-77
2022/10/28 06:48:04;;;;;;;14.52;3.45;;;18.80;99.90;;;-144.05;55.72;125687.94;5014243;28;20030;-78
2022/10/28 06:50:32;;;;;;;10.93;3.63;;;18.80;99.90;;;-144.05;55.70;125687.94;5014663;28;20065;-78
2022/10/28 06:52:58;;;;;;;19.67;3.75;;;18.90;99.90;;;-144.05;55.46;125687.94;5014688;28;20037;-78
2022/10/28 06:55:26;;;;;;;12.68;3.63;;;19.00;99.90;;;-144.05;55.04;125687.94;5014597;28;20391;-80
2022/10/28 06:57:52;;;;;;;11.82;3.78;;;19.00;99.90;;;-144.05;55.20;125687.94;5014187;28;20026;-77
2022/10/28 07:00:19;;;;;;;11.60;4.00;;;19.10;99.90;;;-144.05;54.94;125687.94;5014282;28;20505;-77
2022/10/28 07:02:52;;;;;;;13.30;3.80;;;19.20;99.90;;;-144.05;54.60;125687.94;5013357;28;20034;-78
2022/10/28 07:05:19;;;;;;;14.50;3.78;;;19.30;99.90;;;-144.05;54.58;125687.94;5014395;28;20025;-81
2022/10/28 07:07:45;;;;;;;12.90;3.95;;;19.30;99.90;;;-144.05;54.34;125687.94;5014004;28;20038;-79
2022/10/28 07:10:11;;;;;;;14.05;4.05;;;19.20;99.90;;;-144.05;54.57;125687.94;5014140;28;20375;-79
2022/10/28 07:12:37;;;;;;;11.65;4.10;;;19.20;99.90;;;-144.05;54.59;125687.94;5013207;28;20103;-77
2022/10/28 07:15:04;;;;;;;10.27;3.22;;;19.20;99.90;;;-144.05;55.00;125687.94;5013793;28;20568;-79
2022/10/28 07:17:29;;;;;;;17.58;4.35;;;19.20;99.90;;;-144.05;55.15;125687.94;4996528;28;20389;-77
2022/10/28 07:19:55;;;;;;;15.63;3.80;;;19.20;99.90;;;-144.05;55.23;125687.94;5013853;28;20120;-77
2022/10/28 07:22:21;;;;;;;14.77;3.58;;;19.10;99.90;;;-144.05;55.33;125687.94;4996589;28;20029;-78
2022/10/28 07:24:47;;;;;;;17.25;4.35;;;19.10;99.90;;;-144.05;55.02;125687.94;5012463;28;20029;-76
2022/10/28 07:27:13;;;;;;;18.85;4.15;;;19.20;99.90;;;-144.05;55.22;125687.94;5013910;28;20033;-77
2022/10/28 07:29:39;;;;;;;21.15;4.07;;;19.10;99.90;;;-144.05;54.84;125687.94;5013944;28;20064;-79
2022/10/28 07:32:05;;;;;;;10.95;3.50;;;19.20;99.90;;;-144.05;54.77;125687.94;5014967;28;20551;-79
2022/10/28 07:34:30;;;;;;;12.68;4.10;;;19.20;99.90;;;-144.05;54.80;125687.94;5015873;28;20055;-75
2022/10/28 07:36:56;;;;;;;19.65;4.53;;;19.30;99.90;;;-144.05;54.62;125687.94;5013435;28;20489;-77
2022/10/28 07:39:22;;;;;;;16.45;4.03;;;19.50;99.90;;;-144.05;53.83;125687.94;5013694;28;20045;-79
2022/10/28 07:41:48;;;;;;;12.95;3.60;;;19.60;99.90;;;-144.05;53.61;125687.94;5014330;28;20417;-78
2022/10/28 07:44:14;;;;;;;17.52;4.32;;;19.80;99.90;;;-144.05;52.75;125687.94;5013657;28;20141;-79
2022/10/28 07:46:41;;;;;;;12.45;4.10;;;20.00;99.90;;;-144.05;52.56;125687.94;5014084;28;20153;-78
2022/10/28 07:49:07;;;;;;;15.07;4.22;;;20.20;99.90;;;-144.05;52.42;125687.94;4995971;28;20378;-77
2022/10/28 07:51:33;;;;;;;15.30;3.40;;;20.40;99.90;;;-144.05;51.92;125687.94;5013801;28;20080;-77
2022/10/28 07:53:59;;;;;;;11.23;3.90;;;20.50;99.90;;;-144.05;51.56;125687.94;4996056;28;20034;-76
2022/10/28 07:56:25;;;;;;;14.45;3.85;;;20.60;99.90;;;-144.05;50.94;125687.94;5012223;28;20038;-78
2022/10/28 07:58:51;;;;;;;10.45;4.15;;;20.80;99.90;;;-144.05;51.18;125687.94;5013293;28;20032;-77
2022/10/28 08:01:19;;;;;;;18.90;3.97;;;20.80;99.90;;;-144.05;50.97;125687.94;5013423;28;20026;-77
2022/10/28 08:03:48;;;;;;;11.38;3.75;;;20.90;99.90;;;-144.05;50.68;125687.94;5011990;28;20121;-79
2022/10/28 08:06:19;;;;;;;15.60;4.30;;;20.90;99.90;;;-144.05;50.63;125687.94;5013789;28;20115;-77
2022/10/28 08:08:51;;;;;;;17.23;3.72;;;21.00;99.90;;;-144.05;50.62;125687.94;4996356;28;20030;-78
2022/10/28 08:11:24;;;;;;;15.50;3.85;;;21.00;99.90;;;-144.05;50.75;125687.94;5012441;28;20034;-78
2022/10/28 08:13:52;;;;;;;14.30;4.25;;;21.00;99.90;;;-144.05;50.45;125687.94;5013216;28;20029;-77
2022/10/28 08:16:18;;;;;;;12.68;3.50;;;21.00;99.90;;;-144.05;51.00;125687.94;4995323;28;20041;-78
2022/10/28 08:18:45;;;;;;;14.48;3.55;;;20.90;99.90;;;-144.05;51.06;125687.94;5012714;28;20025;-76
2022/10/28 08:21:14;;;;;;;14.88;3.47;;;20.80;99.90;;;-144.05;51.74;125687.94;5012952;28;20056;-78
2022/10/28 08:23:45;;;;;;;16.85;4.50;;;20.70;99.90;;;-144.05;51.61;125687.94;4995880;28;20366;-77
2022/10/28 08:26:14;;;;;;;10.50;3.58;;;20.60;99.90;;;-144.05;51.71;125687.94;5012961;28;20105;-78
2022/10/28 08:28:40;;;;;;;14.32;4.03;;;20.50;99.90;;;-144.05;51.64;125687.94;5011701;28;20022;-77
2022/10/28 08:31:08;;;;;;;13.15;4.95;;;20.50;99.90;;;-144.05;51.81;125687.94;5012988;28;20030;-78
2022/10/28 08:33:45;;;;;;;13.45;3.42;;;20.60;99.90;;;-144.05;51.32;125687.94;5013050;28;20446;-78
2022/10/28 08:36:15;;;;;;;13.75;3.67;;;20.70;99.90;;;-144.05;50.95;125687.94;5013094;28;20378;-78
2022/10/28 08:38:45;;;;;;;15.80;3.75;;;20.80;99.90;;;-144.05;51.03;125687.94;5020398;28;20109;-78
2022/10/28 08:41:38;;;;;;;15.43;4.13;;;20.80;99.90;;;-144.05;50.89;125687.94;5013716;28;20022;-77
2022/10/28 08:44:29;;;;;;;18.73;3.60;;;20.80;99.90;;;-144.05;50.79;125687.94;5011621;28;20030;-78
2022/10/28 08:47:34;;;;;;;15.38;4.18;;;20.90;99.90;;;-144.05;50.58;125687.94;5012867;28;20026;-75
2022/10/28 08:50:18;;;;;;;13.95;4.15;;;20.90;99.90;;;-144.05;50.52;125687.94;5012644;28;20036;-79
2022/10/28 08:53:22;;;;;;;15.07;3.70;;;20.90;99.90;;;-144.05;50.82;125687.94;4994889;28;20250;-78
2022/10/28 08:55:54;;;;;;;11.65;3.50;;;21.00;99.90;;;-144.05;51.15;125687.94;5012643;28;20018;-77
2022/10/28 08:58:27;;;;;;;13.20;3.80;;;21.00;99.90;;;-144.05;50.12;125687.94;5012429;28;20119;-78
2022/10/28 09:01:00;;;;;;;15.18;3.88;;;21.00;99.90;;;-144.05;50.60;125687.94;5012469;28;20098;-77
2022/10/28 09:03:43;;;;;;;12.27;3.70;;;21.00;99.90;;;-144.05;50.56;125687.94;5012835;28;20505;-78
2022/10/28 09:06:10;;;;;;;14.50;4.22;;;21.00;99.90;;;-144.05;50.67;125687.94;5012575;28;20096;-78
2022/10/28 09:08:43;;;;;;;13.75;3.50;;;21.00;99.90;;;-144.05;50.06;125687.94;5012275;28;20037;-77
2022/10/28 09:11:09;;;;;;;16.13;3.95;;;21.10;99.90;;;-144.05;50.27;125687.94;5011574;28;20034;-78
2022/10/28 09:14:12;;;;;;;18.13;4.18;;;21.30;99.90;;;-144.05;49.16;125687.94;5012370;28;20073;-77
2022/10/28 09:17:09;;;;;;;18.70;3.92;;;21.60;99.90;;;-144.05;48.81;125687.94;4994526;28;20029;-81
2022/10/28 09:19:52;;;;;;;16.67;4.10;;;21.80;99.90;;;-144.05;47.90;125687.94;5011165;28;20025;-78
2022/10/28 09:22:23;;;;;;;16.38;3.83;;;22.20;99.90;;;-144.05;47.73;125687.94;5012298;28;20033;-77
2022/10/28 09:25:01;;;;;;;11.85;3.72;;;22.50;99.90;;;-144.05;46.84;125687.94;5014264;28;20029;-78
2022/10/28 09:28:02;;;;;;;11.73;3.85;;;22.60;99.90;;;-144.05;47.18;125687.94;5015032;28;20093;-77
2022/10/28 09:30:48;;;;;;;13.90;4.28;;;22.50;99.90;;;-144.05;47.68;125687.94;5016069;28;20079;-77
2022/10/28 09:33:45;;;;;;;13.10;3.63;;;22.40;99.90;;;-144.05;47.69;125687.94;5016042;28;20034;-77
2022/10/28 09:36:23;;;;;;;12.15;4.10;;;22.30;99.90;;;-144.05;46.86;125687.94;5014675;28;20030;-78
2022/10/28 09:38:56;;;;;;;9.95;3.35;;;22.30;99.90;;;-144.05;47.26;125687.94;4998273;28;20458;-78
2022/10/28 09:41:32;;;;;;;12.05;3.38;;;22.50;99.90;;;-144.05;47.12;125687.94;5015909;28;20361;-75
2022/10/28 09:44:37;;;;;;;17.92;3.90;;;22.80;99.90;;;-144.05;45.77;125687.94;5015894;28;20041;-78
2022/10/28 09:47:18;;;;;;;11.07;3.70;;;23.10;99.90;;;-144.05;45.05;125687.94;5015603;28;20036;-77
2022/10/28 09:49:49;;;;;;;16.80;3.55;;;23.40;99.90;;;-144.05;44.61;125687.94;5014296;28;20056;-77
2022/10/28 09:52:33;;;;;;;11.13;3.30;;;23.70;99.90;;;-144.05;44.10;125687.94;5015643;28;20038;-77
2022/10/28 09:55:15;;;;;;;12.90;3.38;;;23.80;99.90;;;-144.05;43.69;125687.94;5015494;28;20038;-78
2022/10/28 09:57:42;;;;;;;12.90;3.63;;;23.90;99.90;;;-144.05;43.61;125687.94;5015104;28;20108;-78
2022/10/28 10:00:14;;;;;;;15.93;3.47;;;24.00;99.90;;;-144.05;44.18;125687.94;5015059;28;20627;-78
2022/10/28 10:02:43;;;;;;;10.73;2.78;;;24.10;99.90;;;-144.05;42.99;125687.94;5015121;28;20050;-78
2022/10/28 10:05:18;;;;;;;16.77;3.75;;;24.10;99.90;;;-144.05;43.94;125687.94;5015488;28;20099;-77
2022/10/28 10:08:03;;;;;;;16.80;3.92;;;24.30;99.90;;;-144.05;43.62;125687.94;5014970;28;20083;-77
2022/10/28 10:10:49;;;;;;;13.20;3.53;;;24.30;99.90;;;-144.05;42.88;125687.94;5014893;28;20126;-76
2022/10/28 10:13:22;;;;;;;;;;;24.40;99.90;;;-144.05;43.74;125687.94;5015267;28;20106;-77
2022/10/28 10:16:05;;;;;;;8.70;2.97;;;24.40;99.90;;;-144.05;43.08;125687.94;5015226;28;19909;-77
2022/10/28 10:18:32;;;;;;;15.48;4.03;;;24.40;99.90;;;-144.05;44.25;125687.94;5014913;28;20109;-78
2022/10/28 10:20:59;;;;;;;15.75;3.80;;;24.30;99.90;;;-144.05;43.51;125687.94;5015002;28;20045;-77